• Join FlightAware (Why Join?)
  • Login
  • US Flag 
01:54AM EDT


 

Airport Tracker/Info


-or-


 

Live Flight TrackerFlight Track Log ✈ GJS3707 ✈ 31-May-2013 ✈ KORD - KBOI

Flight Track Log - Related Links

Times and Time Zones

All times are in EDT time to prevent confusion due to time zone crossing. See the GJS3707 flight status page for this flight to view local times or setup timezone preferences in your user account.

Time Position Orientation Groundspeed Altitude Reporting Facility
EDT Latitude Longitude Course Direction KTS MPH feet Rate Location/Type
11:02AM 41.9500 -87.9833 270° West 176 203 2,500  Level Chicago TRACON
11:03AM 41.9500 -88.0500 270° West 208 239 4,700 1,980 Climbing Chicago TRACON
11:04AM 41.9500 -88.1167 270° West 242 278 6,300 1,800 Climbing Chicago TRACON
11:04AM 41.9458 -88.1461 259° West 237 273 6,800 2,220 Climbing Chicago Center
11:05AM 41.9472 -88.2425 271° West 259 298 9,200 2,220 Climbing Chicago Center
11:06AM 41.9668 -88.6735 270° West  Level FlightAware Approximate
11:06AM 41.9458 -88.3431 269° West 270 311 11,400  Level Chicago Center
11:07AM 41.9668 -88.8282 270° West  Level FlightAware Approximate
11:07AM 41.9600 -88.4589 279° West 319 367 12,700  Level Chicago Center
11:08AM 41.9669 -88.9862 270° West  Level FlightAware Approximate
11:08AM 41.9864 -88.6003 284° West 331 381 15,400  Level Chicago Center
11:09AM 42.0044 -88.7211 281° West 331 381 17,000 1,440 Climbing Chicago Center
11:10AM 42.0314 -88.8497 286° West 356 410 18,400 1,320 Climbing Chicago Center
11:11AM 42.0628 -88.9839 288° West 374 430 19,800 1,320 Climbing Chicago Center
11:13AM 42.0747 -89.1356 276° West 377 434 21,200 1,320 Climbing Chicago Center
11:14AM 42.0714 -89.2831 268° West 388 447 22,600 1,380 Climbing Chicago Center
11:15AM 42.0708 -89.4264 270° West 384 442 24,100 1,500 Climbing Chicago Center
11:16AM 42.0731 -89.5689 271° West 380 437 25,700 1,560 Climbing Chicago Center
11:17AM 42.0881 -89.7303 277° West 376 433 27,400 1,440 Climbing Chicago Center
11:18AM 42.1283 -89.8631 292° West 380 437 28,700 1,140 Climbing Chicago Center
11:19AM 42.1642 -89.9800 292° West 380 437 29,800 1,140 Climbing Chicago Center
11:20AM 42.2086 -90.1336 291° West 372 428 31,100 960 Climbing Chicago Center
11:21AM 42.2475 -90.2633 292° West 374 430 31,900 420 Climbing Chicago Center
11:22AM 42.2858 -90.3967 291° West 382 440 32,000  Climbing Chicago Center
11:23AM 42.3272 -90.5375 292° West 401 461 32,000  Level Chicago Center
11:24AM 42.3706 -90.6872 291° West 425 489 32,000  Level Chicago Center
11:25AM 42.4150 -90.8367 292° West 431 496 32,000  Level Chicago Center
11:26AM 42.4656 -91.0158 291° West 427 491 32,000  Level Chicago Center
11:27AM 42.5075 -91.1628 291° West 423 487 32,000  Level Chicago Center
11:28AM 42.5494 -91.3114 291° West 424 488 32,000  Level Chicago Center
11:29AM 42.5908 -91.4603 291° West 423 487 32,000  Level Chicago Center
11:30AM 42.6322 -91.6119 290° West 423 487 32,000  Level Chicago Center
11:31AM 42.6758 -91.7661 291° West 427 491 32,000  Level Chicago Center
11:32AM 42.7172 -91.9167 291° West 424 488 32,000  Level Chicago Center
11:33AM 42.7664 -92.0967 290° West 423 487 32,000  Level Chicago Center
11:34AM 42.8061 -92.2458 290° West 422 486 32,000  Level Chicago Center
11:35AM 42.8458 -92.3947 290° West 422 486 32,000  Level Chicago Center
11:36AM 42.8861 -92.5439 290° West 422 486 32,000  Level Chicago Center
11:37AM 42.9256 -92.6939 290° West 424 488 32,000  Level Chicago Center
11:38AM 42.9664 -92.8467 290° West 431 496 32,000  Level Chicago Center
11:39AM 43.0156 -93.0306 290° West 433 498 32,000  Level Chicago Center
11:40AM 43.0567 -93.1883 290° West 440 506 32,000  Level Chicago Center
11:42AM 43.1003 -93.3811 287° West 445 512 32,000  Level Minneapolis Center
11:43AM 43.1286 -93.5414 284° West 439 505 32,000  Level Minneapolis Center
11:44AM 43.1581 -93.6928 285° West 421 484 32,000  Level Minneapolis Center
11:45AM 43.1842 -93.8497 283° West 425 489 32,000  Level Minneapolis Center
11:46AM 43.2178 -94.0417 284° West 434 499 32,000  Level Minneapolis Center
11:47AM 43.2456 -94.2014 283° West 435 501 32,000  Level Minneapolis Center
11:48AM 43.2717 -94.3583 283° West 428 493 32,000  Level Minneapolis Center
11:49AM 43.2983 -94.5197 283° West 431 496 32,000  Level Minneapolis Center
11:50AM 43.3253 -94.6833 283° West 437 503 32,000  Level Minneapolis Center
11:51AM 43.3581 -94.8797 283° West 439 505 32,000  Level Minneapolis Center
11:52AM 43.3839 -95.0433 282° West 439 505 32,000  Level Minneapolis Center
11:53AM 43.4111 -95.2092 283° West 441 507 32,000  Level Minneapolis Center
11:54AM 43.4372 -95.3750 282° West 443 510 32,000  Level Minneapolis Center
11:55AM 43.4625 -95.5414 282° West 445 512 32,000  Level Minneapolis Center
11:56AM 43.4889 -95.7083 282° West 445 512 32,000  Level Minneapolis Center
11:57AM 43.5142 -95.8742 282° West 443 510 32,000  Level Minneapolis Center
11:58AM 43.5447 -96.0736 282° West 443 510 32,000  Level Minneapolis Center
11:59AM 43.5686 -96.2383 281° West 439 505 32,000  Level Minneapolis Center
12:00PM 43.5936 -96.4047 282° West 440 506 32,000  Level Minneapolis Center
12:01PM 43.6189 -96.5722 282° West 442 509 32,000  Level Minneapolis Center
12:02PM 43.6431 -96.7408 281° West 444 511 32,000  Level Minneapolis Center
12:03PM 43.6608 -96.9097 278° West 445 512 32,000  Level Minneapolis Center
12:04PM 43.6753 -97.1150 276° West 447 514 32,100 480 Climbing Minneapolis Center
12:05PM 43.6892 -97.2844 277° West 445 512 33,100 900 Climbing Minneapolis Center
12:06PM 43.7011 -97.4517 276° West 440 506 34,000 420 Climbing Minneapolis Center
12:07PM 43.7128 -97.6181 276° West 436 502 34,000  Level Minneapolis Center
12:08PM 43.7253 -97.7861 276° West 438 504 34,000  Level Minneapolis Center
12:09PM 43.7364 -97.9514 275° West 434 499 34,000  Level Minneapolis Center
12:11PM 43.7486 -98.1164 276° West 433 498 34,000  Level Minneapolis Center
12:12PM 43.7606 -98.3108 275° West 426 490 34,000  Level Minneapolis Center
12:13PM 43.7711 -98.4736 275° West 426 490 34,000  Level Minneapolis Center
12:14PM 43.7817 -98.6378 275° West 428 493 34,000  Level Minneapolis Center
12:15PM 43.7933 -98.8156 275° West 436 502 34,000  Level Minneapolis Center
12:16PM 43.8036 -98.9869 275° West 444 511 34,000  Level Minneapolis Center
12:17PM 43.8133 -99.1594 275° West 447 514 34,000  Level Minneapolis Center
12:18PM 43.8244 -99.3289 275° West 444 511 34,000  Level Minneapolis Center
12:19PM 43.8358 -99.5308 275° West 439 505 34,000  Level Minneapolis Center
12:20PM 43.8444 -99.6997 274° West 438 504 34,000  Level Minneapolis Center
12:21PM 43.8547 -99.8717 275° West 443 510 34,000  Level Minneapolis Center
12:22PM 43.8631 -100.0458 274° West 448 516 34,000  Level Minneapolis Center
12:23PM 43.8717 -100.2186 274° West 449 517 34,000  Level Minneapolis Center
12:24PM 43.8792 -100.3942 273° West 452 520 34,000  Level Minneapolis Center
12:25PM 43.8883 -100.5700 274° West 454 522 34,000  Level Minneapolis Center
12:26PM 43.8975 -100.7800 274° West 454 522 34,000  Level Minneapolis Center
12:27PM 43.9050 -100.9542 273° West 453 521 34,000  Level Minneapolis Center
12:28PM 43.9128 -101.1294 274° West 454 522 34,000  Level Minneapolis Center
12:29PM 43.9200 -101.3028 273° West 452 520 34,000  Level Minneapolis Center
12:30PM 43.9256 -101.4775 273° West 452 520 34,000  Level Minneapolis Center
12:31PM 43.9319 -101.6528 273° West 453 521 34,000  Level Minneapolis Center
12:32PM 43.9394 -101.8642 273° West 455 524 34,000  Level Minneapolis Center
12:33PM 43.9450 -102.0411 273° West 456 525 34,000  Level Minneapolis Center
12:34PM 43.9514 -102.2192 273° West 459 528 34,000  Level Minneapolis Center
12:35PM 43.9569 -102.3967 273° West 463 533 34,000  Level Denver Center
12:36PM 43.9625 -102.5758 273° West 465 535 34,000  Level Denver Center
12:37PM 43.9686 -102.7564 273° West 466 536 34,000  Level Denver Center
12:38PM 43.9753 -102.9653 273° West 465 535 34,000  Level Denver Center
12:39PM 43.9789 -103.1383 272° West 467 537 34,000  Level Denver Center
12:41PM 43.9825 -103.3378 272° West 465 535 34,000  Level Denver Center
12:42PM 43.9853 -103.5092 271° West 466 536 34,000  Level Denver Center
12:43PM 43.9886 -103.7106 271° West 469 540 34,000  Level Denver Center
12:44PM 43.9917 -103.8856 271° West 474 545 34,000  Level Denver Center
12:45PM 43.9944 -104.0900 271° West 477 549 34,000  Level Denver Center
12:46PM 43.9961 -104.2653 271° West 477 549 34,000  Level Denver Center
12:47PM 43.9992 -104.4694 271° West 476 548 34,000  Level Denver Center
12:48PM 44.0008 -104.6472 271° West 481 554 34,000  Level Denver Center
12:49PM 44.0017 -104.8278 270° West 487 560 34,000  Level Denver Center
12:50PM 44.0028 -105.0417 270° West 495 570 34,000  Level Denver Center
12:51PM 44.0036 -105.2292 270° West 505 581 34,000  Level Denver Center
12:52PM 44.0047 -105.4472 270° West 507 583 34,000 120 Level Denver Center
12:53PM 44.0053 -105.6394 270° West 515 593 34,300 720 Climbing Denver Center
12:54PM 44.0053 -105.8592 270° West 514 592 35,500 780 Climbing Denver Center
12:55PM 44.0039 -106.0406 269° West 499 574 36,000 300 Climbing Denver Center
12:56PM 44.0028 -106.1758 269° West 497 572 36,000  Level Salt Lake Center
12:57PM 43.9992 -106.3514 268° West 480 552 36,000  Level Salt Lake Center
12:57PM 43.9997 -106.4219 271° West 467 537 36,000  Level Denver Center
12:58PM 44.0069 -106.6172 273° West 457 526 36,000  Level Denver Center
12:59PM 44.0100 -106.7183 272° West 461 531 36,000  Level Salt Lake Center
01:00PM 44.0158 -106.8903 273° West 465 535 36,000  Level Salt Lake Center
01:00PM 44.0200 -106.9764 274° West 466 536 36,000  Level Denver Center
01:01PM 44.0278 -107.1814 273° West 473 544 36,000  Level Denver Center
01:02PM 44.0281 -107.2706 270° West 474 545 36,000  Level Salt Lake Center
01:03PM 44.0339 -107.4731 272° West 469 540 36,000  Level Salt Lake Center
01:04PM 44.0417 -107.6447 274° West 466 536 36,000  Level Salt Lake Center
01:05PM 44.0472 -107.8172 273° West 465 535 36,000  Level Salt Lake Center
01:06PM 44.0517 -108.0206 272° West 469 540 36,000  Level Salt Lake Center
01:07PM 44.0569 -108.1956 272° West 472 543 36,000  Level Salt Lake Center
01:08PM 44.0622 -108.3986 272° West 469 540 36,000  Level Salt Lake Center
01:09PM 44.0669 -108.5722 272° West 470 541 36,000  Level Salt Lake Center
01:10PM 44.0703 -108.7728 271° West 466 536 36,000  Level Salt Lake Center
01:11PM 44.0739 -108.9442 272° West 464 534 36,000  Level Salt Lake Center
01:12PM 44.0778 -109.1167 272° West 465 535 36,000  Level Salt Lake Center
01:13PM 44.0803 -109.3169 271° West 465 535 36,000  Level Salt Lake Center
01:14PM 44.0836 -109.4869 272° West 460 529 36,000  Level Salt Lake Center
01:15PM 44.0853 -109.6811 271° West 454 522 36,000  Level Salt Lake Center
01:16PM 44.0875 -109.8511 271° West 457 526 36,000  Level Salt Lake Center
01:17PM 44.0897 -110.0467 271° West 454 522 36,000  Level Salt Lake Center
01:18PM 44.0908 -110.2150 271° West 454 522 36,000  Level Salt Lake Center
01:19PM 44.0922 -110.3825 271° West 453 521 36,000  Level Salt Lake Center
01:20PM 44.0936 -110.5750 271° West 448 516 36,000  Level Salt Lake Center
01:21PM 44.0928 -110.7417 270° West 449 517 36,000  Level Salt Lake Center
01:22PM 44.0933 -110.9347 270° West 447 514 36,000  Level Salt Lake Center
01:23PM 44.0939 -111.1000 270° West 446 513 36,000  Level Salt Lake Center
01:24PM 44.0936 -111.2622 270° West 439 505 36,000  Level Salt Lake Center
01:25PM 44.0933 -111.4536 270° West 441 507 36,000  Level Salt Lake Center
01:26PM 44.0925 -111.6175 270° West 441 507 36,000  Level Salt Lake Center
01:28PM 44.0922 -111.8075 270° West 439 505 36,000  Level Salt Lake Center
01:29PM 44.0908 -111.9703 269° West 438 504 36,000  Level Salt Lake Center
01:30PM 44.0881 -112.1303 269° West 433 498 36,000  Level Salt Lake Center
01:31PM 44.0767 -112.3153 265° West 429 494 36,000  Level Salt Lake Center
01:32PM 44.0572 -112.4742 260° West 434 499 36,000  Level Salt Lake Center
01:33PM 44.0361 -112.6558 261° West 426 490 36,000  Level Salt Lake Center
01:34PM 44.0164 -112.8092 260° West 421 484 36,000  Level Salt Lake Center
01:35PM 43.9969 -112.9864 261° West 417 480 36,000  Level Salt Lake Center
01:36PM 43.9808 -113.1367 262° West 413 475 36,000  Level Salt Lake Center
01:37PM 43.9569 -113.3086 259° West 407 468 36,000  Level Salt Lake Center
01:38PM 43.9397 -113.4536 261° West 401 461 36,000  Level Salt Lake Center
01:39PM 43.9189 -113.6264 261° West 408 470 36,000  Level Salt Lake Center
01:40PM 43.8994 -113.7736 260° West 405 466 36,000  Level Salt Lake Center
01:41PM 43.8808 -113.9319 261° West 416 479 36,000 -360 Level Salt Lake Center
01:42PM 43.8561 -114.1106 259° West 423 487 35,300 -1,260 Descending Salt Lake Center
01:43PM 43.8381 -114.2589 260° West 406 467 33,400 -2,220 Descending Salt Lake Center
01:44PM 43.8169 -114.4217 260° West 386 444 30,800 -2,400 Descending Salt Lake Center
01:45PM 43.7975 -114.5672 260° West 397 457 28,500 -2,280 Descending Salt Lake Center
01:46PM 43.7769 -114.7147 259° West 404 465 26,200 -2,460 Descending Salt Lake Center
01:47PM 43.7556 -114.8786 260° West 382 440 23,500 -2,460 Descending Salt Lake Center
01:48PM 43.7369 -115.0117 259° West 367 422 21,200 -2,520 Descending Salt Lake Center
01:49PM 43.7178 -115.1631 260° West 356 410 18,300 -2,520 Descending Salt Lake Center
01:50PM 43.7000 -115.2903 259° West 351 404 16,100 -1,980 Descending Salt Lake Center
01:51PM 43.6722 -115.4286 255° West 344 396 14,300 -1,680 Descending Salt Lake Center
01:52PM 43.6358 -115.5536 248° West 340 391 12,700 -1,320 Descending Salt Lake Center
01:53PM 43.6006 -115.6722 248° West 321 369 11,600 -1,200 Descending Salt Lake Center
01:54PM 43.5708 -115.7772 249° West 286 329 10,300 -1,320 Descending Salt Lake Center
01:55PM 43.5403 -115.8792 248° West 277 319 8,900 -1,140 Descending Salt Lake Center
01:56PM 43.5161 -115.9567 247° West 232 267 8,000 -1,260 Descending Salt Lake Center
01:57PM 43.5006 -116.0253 253° West 186 214 6,300 -1,500 Descending Salt Lake Center
01:59PM 43.5153 -116.0811 290° West 150 173 5,000 -1,260 Descending Salt Lake Center